sensor_id;sensor_type;location;lat;lon;timestamp;P1;durP1;ratioP1;P2;durP2;ratioP2
35675;SDS011;21790;42.668;23.298;2023-09-07T00:00:38;12.55;;;8.55;;
35675;SDS011;21790;42.668;23.298;2023-09-07T00:03:05;11.68;;;7.63;;
35675;SDS011;21790;42.668;23.298;2023-09-07T00:05:31;13.27;;;8.50;;
35675;SDS011;21790;42.668;23.298;2023-09-07T00:07:56;14.15;;;8.68;;
35675;SDS011;21790;42.668;23.298;2023-09-07T00:10:22;14.20;;;8.63;;
35675;SDS011;21790;42.668;23.298;2023-09-07T00:12:50;12.63;;;9.52;;
35675;SDS011;21790;42.668;23.298;2023-09-07T00:15:16;11.80;;;9.18;;
35675;SDS011;21790;42.668;23.298;2023-09-07T00:17:46;13.60;;;8.45;;
35675;SDS011;21790;42.668;23.298;2023-09-07T00:20:11;14.65;;;8.93;;
35675;SDS011;21790;42.668;23.298;2023-09-07T00:22:39;11.98;;;8.30;;
35675;SDS011;21790;42.668;23.298;2023-09-07T00:25:05;17.77;;;8.75;;
35675;SDS011;21790;42.668;23.298;2023-09-07T00:27:34;15.75;;;9.45;;
35675;SDS011;21790;42.668;23.298;2023-09-07T00:30:00;12.25;;;8.77;;
35675;SDS011;21790;42.668;23.298;2023-09-07T00:32:26;14.75;;;9.30;;
35675;SDS011;21790;42.668;23.298;2023-09-07T00:34:54;14.45;;;9.45;;
35675;SDS011;21790;42.668;23.298;2023-09-07T00:37:22;17.75;;;10.45;;
35675;SDS011;21790;42.668;23.298;2023-09-07T00:39:47;13.07;;;8.77;;
35675;SDS011;21790;42.668;23.298;2023-09-07T00:42:13;16.25;;;9.77;;
35675;SDS011;21790;42.668;23.298;2023-09-07T00:44:38;12.15;;;8.82;;
35675;SDS011;21790;42.668;23.298;2023-09-07T00:47:04;15.18;;;8.98;;
35675;SDS011;21790;42.668;23.298;2023-09-07T00:49:30;16.17;;;10.00;;
35675;SDS011;21790;42.668;23.298;2023-09-07T00:51:56;15.25;;;10.45;;
35675;SDS011;21790;42.668;23.298;2023-09-07T00:54:22;14.95;;;9.75;;
35675;SDS011;21790;42.668;23.298;2023-09-07T00:56:48;17.50;;;10.63;;
35675;SDS011;21790;42.668;23.298;2023-09-07T00:59:14;13.85;;;9.85;;
35675;SDS011;21790;42.668;23.298;2023-09-07T01:01:40;13.40;;;9.90;;
35675;SDS011;21790;42.668;23.298;2023-09-07T01:04:07;15.60;;;9.88;;
35675;SDS011;21790;42.668;23.298;2023-09-07T01:06:35;16.02;;;10.43;;
35675;SDS011;21790;42.668;23.298;2023-09-07T01:09:05;18.77;;;13.37;;
35675;SDS011;21790;42.668;23.298;2023-09-07T01:11:36;19.05;;;13.38;;
35675;SDS011;21790;42.668;23.298;2023-09-07T01:14:02;18.48;;;12.25;;
35675;SDS011;21790;42.668;23.298;2023-09-07T01:16:29;17.30;;;13.90;;
35675;SDS011;21790;42.668;23.298;2023-09-07T01:18:58;20.38;;;12.88;;
35675;SDS011;21790;42.668;23.298;2023-09-07T01:21:25;18.83;;;12.85;;
35675;SDS011;21790;42.668;23.298;2023-09-07T01:23:51;24.52;;;14.38;;
35675;SDS011;21790;42.668;23.298;2023-09-07T01:26:17;22.17;;;13.48;;
35675;SDS011;21790;42.668;23.298;2023-09-07T01:28:43;17.23;;;13.32;;
35675;SDS011;21790;42.668;23.298;2023-09-07T01:31:08;18.20;;;13.82;;
35675;SDS011;21790;42.668;23.298;2023-09-07T01:33:34;19.00;;;13.15;;
35675;SDS011;21790;42.668;23.298;2023-09-07T01:36:00;18.10;;;13.25;;
35675;SDS011;21790;42.668;23.298;2023-09-07T01:38:26;18.45;;;13.90;;
35675;SDS011;21790;42.668;23.298;2023-09-07T01:40:51;19.58;;;13.82;;
35675;SDS011;21790;42.668;23.298;2023-09-07T01:43:17;18.17;;;13.50;;
35675;SDS011;21790;42.668;23.298;2023-09-07T01:45:42;21.42;;;13.82;;
35675;SDS011;21790;42.668;23.298;2023-09-07T01:48:11;24.90;;;13.40;;
35675;SDS011;21790;42.668;23.298;2023-09-07T01:50:39;20.05;;;13.10;;
35675;SDS011;21790;42.668;23.298;2023-09-07T01:53:04;22.35;;;12.93;;
35675;SDS011;21790;42.668;23.298;2023-09-07T01:55:30;19.08;;;12.85;;
35675;SDS011;21790;42.668;23.298;2023-09-07T01:57:57;24.65;;;13.88;;
35675;SDS011;21790;42.668;23.298;2023-09-07T02:00:22;26.70;;;13.25;;
35675;SDS011;21790;42.668;23.298;2023-09-07T02:02:48;23.60;;;15.07;;
35675;SDS011;21790;42.668;23.298;2023-09-07T02:05:14;24.42;;;14.95;;
35675;SDS011;21790;42.668;23.298;2023-09-07T02:07:39;24.15;;;14.32;;
35675;SDS011;21790;42.668;23.298;2023-09-07T02:10:05;21.80;;;14.90;;
35675;SDS011;21790;42.668;23.298;2023-09-07T02:12:31;20.02;;;14.55;;
35675;SDS011;21790;42.668;23.298;2023-09-07T02:15:02;22.40;;;15.38;;
35675;SDS011;21790;42.668;23.298;2023-09-07T02:17:29;22.50;;;16.20;;
35675;SDS011;21790;42.668;23.298;2023-09-07T02:19:55;21.55;;;15.48;;
35675;SDS011;21790;42.668;23.298;2023-09-07T02:22:21;19.95;;;15.02;;
35675;SDS011;21790;42.668;23.298;2023-09-07T02:24:46;23.38;;;15.55;;
35675;SDS011;21790;42.668;23.298;2023-09-07T02:27:12;19.95;;;14.02;;
35675;SDS011;21790;42.668;23.298;2023-09-07T02:29:37;33.25;;;14.75;;
35675;SDS011;21790;42.668;23.298;2023-09-07T02:32:03;20.83;;;14.35;;
35675;SDS011;21790;42.668;23.298;2023-09-07T02:34:29;27.23;;;15.30;;
35675;SDS011;21790;42.668;23.298;2023-09-07T02:36:55;19.30;;;13.73;;
35675;SDS011;21790;42.668;23.298;2023-09-07T02:39:24;20.05;;;15.13;;
35675;SDS011;21790;42.668;23.298;2023-09-07T02:41:51;19.08;;;13.85;;
35675;SDS011;21790;42.668;23.298;2023-09-07T02:44:17;20.85;;;13.60;;
35675;SDS011;21790;42.668;23.298;2023-09-07T02:46:43;19.95;;;13.38;;
35675;SDS011;21790;42.668;23.298;2023-09-07T02:49:08;23.50;;;14.18;;
35675;SDS011;21790;42.668;23.298;2023-09-07T02:51:34;19.30;;;13.98;;
35675;SDS011;21790;42.668;23.298;2023-09-07T02:54:00;25.30;;;14.95;;
35675;SDS011;21790;42.668;23.298;2023-09-07T02:56:28;22.73;;;15.43;;
35675;SDS011;21790;42.668;23.298;2023-09-07T02:58:53;27.92;;;14.63;;
35675;SDS011;21790;42.668;23.298;2023-09-07T03:01:19;20.27;;;15.27;;
35675;SDS011;21790;42.668;23.298;2023-09-07T03:03:46;22.95;;;15.15;;
35675;SDS011;21790;42.668;23.298;2023-09-07T03:06:12;20.77;;;14.77;;
35675;SDS011;21790;42.668;23.298;2023-09-07T03:08:42;22.05;;;15.95;;
35675;SDS011;21790;42.668;23.298;2023-09-07T03:11:09;24.80;;;17.13;;
35675;SDS011;21790;42.668;23.298;2023-09-07T03:13:35;21.85;;;16.80;;
35675;SDS011;21790;42.668;23.298;2023-09-07T03:16:01;23.40;;;16.05;;
35675;SDS011;21790;42.668;23.298;2023-09-07T03:18:28;24.38;;;17.50;;
35675;SDS011;21790;42.668;23.298;2023-09-07T03:20:54;24.05;;;16.58;;
35675;SDS011;21790;42.668;23.298;2023-09-07T03:23:21;23.70;;;17.75;;
35675;SDS011;21790;42.668;23.298;2023-09-07T03:25:48;23.45;;;18.05;;
35675;SDS011;21790;42.668;23.298;2023-09-07T03:28:13;24.98;;;18.92;;
35675;SDS011;21790;42.668;23.298;2023-09-07T03:30:39;27.27;;;18.65;;
35675;SDS011;21790;42.668;23.298;2023-09-07T03:33:05;23.35;;;18.75;;
35675;SDS011;21790;42.668;23.298;2023-09-07T03:35:31;28.48;;;18.70;;
35675;SDS011;21790;42.668;23.298;2023-09-07T03:37:57;22.95;;;17.85;;
35675;SDS011;21790;42.668;23.298;2023-09-07T03:40:22;28.55;;;19.23;;
35675;SDS011;21790;42.668;23.298;2023-09-07T03:42:48;27.60;;;18.88;;
35675;SDS011;21790;42.668;23.298;2023-09-07T03:45:14;25.08;;;18.33;;
35675;SDS011;21790;42.668;23.298;2023-09-07T03:47:40;27.65;;;18.33;;
35675;SDS011;21790;42.668;23.298;2023-09-07T03:50:07;25.65;;;18.92;;
35675;SDS011;21790;42.668;23.298;2023-09-07T03:52:33;23.80;;;18.25;;
35675;SDS011;21790;42.668;23.298;2023-09-07T03:54:59;25.05;;;18.45;;
35675;SDS011;21790;42.668;23.298;2023-09-07T03:57:25;22.80;;;17.17;;
35675;SDS011;21790;42.668;23.298;2023-09-07T03:59:51;24.95;;;17.35;;
35675;SDS011;21790;42.668;23.298;2023-09-07T04:02:17;22.77;;;17.17;;
35675;SDS011;21790;42.668;23.298;2023-09-07T04:04:43;27.13;;;18.35;;
35675;SDS011;21790;42.668;23.298;2023-09-07T04:07:14;31.63;;;18.60;;
35675;SDS011;21790;42.668;23.298;2023-09-07T04:09:40;26.20;;;18.65;;
35675;SDS011;21790;42.668;23.298;2023-09-07T04:12:05;28.55;;;17.85;;
35675;SDS011;21790;42.668;23.298;2023-09-07T04:14:32;24.00;;;18.58;;
35675;SDS011;21790;42.668;23.298;2023-09-07T04:16:57;24.55;;;18.33;;
35675;SDS011;21790;42.668;23.298;2023-09-07T04:19:23;27.05;;;18.48;;
35675;SDS011;21790;42.668;23.298;2023-09-07T04:21:49;31.20;;;18.65;;
35675;SDS011;21790;42.668;23.298;2023-09-07T04:24:16;21.85;;;17.10;;
35675;SDS011;21790;42.668;23.298;2023-09-07T04:26:41;23.85;;;18.33;;
35675;SDS011;21790;42.668;23.298;2023-09-07T04:29:07;27.70;;;18.40;;
35675;SDS011;21790;42.668;23.298;2023-09-07T04:31:34;25.48;;;17.85;;
35675;SDS011;21790;42.668;23.298;2023-09-07T04:34:00;25.88;;;18.70;;
35675;SDS011;21790;42.668;23.298;2023-09-07T04:36:25;23.08;;;17.48;;
35675;SDS011;21790;42.668;23.298;2023-09-07T04:38:54;26.15;;;17.98;;
35675;SDS011;21790;42.668;23.298;2023-09-07T04:41:19;23.48;;;16.63;;
35675;SDS011;21790;42.668;23.298;2023-09-07T04:43:45;23.98;;;16.65;;
35675;SDS011;21790;42.668;23.298;2023-09-07T04:46:11;25.45;;;17.02;;
35675;SDS011;21790;42.668;23.298;2023-09-07T04:48:38;21.05;;;16.30;;
35675;SDS011;21790;42.668;23.298;2023-09-07T04:51:04;24.65;;;17.50;;
35675;SDS011;21790;42.668;23.298;2023-09-07T04:53:32;24.52;;;16.67;;
35675;SDS011;21790;42.668;23.298;2023-09-07T04:56:00;21.45;;;16.52;;
35675;SDS011;21790;42.668;23.298;2023-09-07T04:58:26;23.20;;;16.27;;
35675;SDS011;21790;42.668;23.298;2023-09-07T05:00:51;25.25;;;17.02;;
35675;SDS011;21790;42.668;23.298;2023-09-07T05:03:17;24.13;;;16.98;;
35675;SDS011;21790;42.668;23.298;2023-09-07T05:05:43;29.88;;;18.13;;
35675;SDS011;21790;42.668;23.298;2023-09-07T05:08:09;20.55;;;16.55;;
35675;SDS011;21790;42.668;23.298;2023-09-07T05:10:35;29.67;;;16.40;;
35675;SDS011;21790;42.668;23.298;2023-09-07T05:13:01;20.77;;;15.73;;
35675;SDS011;21790;42.668;23.298;2023-09-07T05:15:27;23.02;;;15.30;;
35675;SDS011;21790;42.668;23.298;2023-09-07T05:17:53;25.75;;;16.20;;
35675;SDS011;21790;42.668;23.298;2023-09-07T05:20:19;25.17;;;16.33;;
35675;SDS011;21790;42.668;23.298;2023-09-07T05:22:45;23.00;;;16.67;;
35675;SDS011;21790;42.668;23.298;2023-09-07T05:25:11;24.83;;;16.80;;
35675;SDS011;21790;42.668;23.298;2023-09-07T05:27:37;22.58;;;15.55;;
35675;SDS011;21790;42.668;23.298;2023-09-07T05:30:03;21.52;;;15.63;;
35675;SDS011;21790;42.668;23.298;2023-09-07T05:32:30;19.88;;;14.88;;
35675;SDS011;21790;42.668;23.298;2023-09-07T05:34:59;23.08;;;17.17;;
35675;SDS011;21790;42.668;23.298;2023-09-07T05:37:24;25.98;;;15.85;;
35675;SDS011;21790;42.668;23.298;2023-09-07T05:39:50;26.92;;;16.30;;
35675;SDS011;21790;42.668;23.298;2023-09-07T05:42:15;22.15;;;16.35;;
35675;SDS011;21790;42.668;23.298;2023-09-07T05:44:41;24.65;;;17.50;;
35675;SDS011;21790;42.668;23.298;2023-09-07T05:47:07;22.17;;;16.92;;
35675;SDS011;21790;42.668;23.298;2023-09-07T05:49:32;27.80;;;16.27;;
35675;SDS011;21790;42.668;23.298;2023-09-07T05:51:58;23.08;;;16.95;;
35675;SDS011;21790;42.668;23.298;2023-09-07T05:54:23;26.70;;;16.60;;
35675;SDS011;21790;42.668;23.298;2023-09-07T05:56:49;22.92;;;15.75;;
35675;SDS011;21790;42.668;23.298;2023-09-07T05:59:15;28.95;;;16.48;;
35675;SDS011;21790;42.668;23.298;2023-09-07T06:01:40;33.13;;;16.25;;
35675;SDS011;21790;42.668;23.298;2023-09-07T06:04:06;22.45;;;15.45;;
35675;SDS011;21790;42.668;23.298;2023-09-07T06:06:32;19.92;;;14.70;;
35675;SDS011;21790;42.668;23.298;2023-09-07T06:08:58;27.73;;;14.55;;
35675;SDS011;21790;42.668;23.298;2023-09-07T06:11:26;27.35;;;15.88;;
35675;SDS011;21790;42.668;23.298;2023-09-07T06:13:51;20.95;;;13.82;;
35675;SDS011;21790;42.668;23.298;2023-09-07T06:16:17;21.02;;;13.32;;
35675;SDS011;21790;42.668;23.298;2023-09-07T06:18:43;18.42;;;12.95;;
35675;SDS011;21790;42.668;23.298;2023-09-07T06:21:09;18.17;;;11.95;;
35675;SDS011;21790;42.668;23.298;2023-09-07T06:23:35;18.63;;;12.50;;
35675;SDS011;21790;42.668;23.298;2023-09-07T06:26:00;20.42;;;12.32;;
35675;SDS011;21790;42.668;23.298;2023-09-07T06:28:26;15.63;;;11.18;;
35675;SDS011;21790;42.668;23.298;2023-09-07T06:30:52;16.98;;;11.75;;
35675;SDS011;21790;42.668;23.298;2023-09-07T06:33:18;14.88;;;10.43;;
35675;SDS011;21790;42.668;23.298;2023-09-07T06:35:43;17.15;;;10.90;;
35675;SDS011;21790;42.668;23.298;2023-09-07T06:38:09;18.02;;;10.40;;
35675;SDS011;21790;42.668;23.298;2023-09-07T06:40:35;22.20;;;10.57;;
35675;SDS011;21790;42.668;23.298;2023-09-07T06:43:00;15.00;;;10.35;;
35675;SDS011;21790;42.668;23.298;2023-09-07T06:45:30;13.50;;;9.88;;
35675;SDS011;21790;42.668;23.298;2023-09-07T06:47:59;17.40;;;9.80;;
35675;SDS011;21790;42.668;23.298;2023-09-07T06:50:25;13.38;;;8.77;;
35675;SDS011;21790;42.668;23.298;2023-09-07T06:52:50;13.40;;;8.70;;
35675;SDS011;21790;42.668;23.298;2023-09-07T06:55:16;11.65;;;7.90;;
35675;SDS011;21790;42.668;23.298;2023-09-07T06:57:41;11.65;;;8.40;;
35675;SDS011;21790;42.668;23.298;2023-09-07T07:00:07;15.27;;;9.43;;
35675;SDS011;21790;42.668;23.298;2023-09-07T07:02:33;15.95;;;9.25;;
35675;SDS011;21790;42.668;23.298;2023-09-07T07:04:59;16.38;;;9.27;;
35675;SDS011;21790;42.668;23.298;2023-09-07T07:07:25;18.77;;;8.82;;
35675;SDS011;21790;42.668;23.298;2023-09-07T07:09:51;18.77;;;9.65;;
35675;SDS011;21790;42.668;23.298;2023-09-07T07:12:17;15.38;;;9.05;;
35675;SDS011;21790;42.668;23.298;2023-09-07T07:14:44;13.60;;;9.27;;
35675;SDS011;21790;42.668;23.298;2023-09-07T07:17:09;15.18;;;8.77;;
35675;SDS011;21790;42.668;23.298;2023-09-07T07:19:35;16.35;;;7.72;;
35675;SDS011;21790;42.668;23.298;2023-09-07T07:22:00;22.85;;;8.15;;
35675;SDS011;21790;42.668;23.298;2023-09-07T07:24:26;11.88;;;8.25;;
35675;SDS011;21790;42.668;23.298;2023-09-07T07:26:52;13.43;;;8.02;;
35675;SDS011;21790;42.668;23.298;2023-09-07T07:29:17;16.42;;;8.82;;
35675;SDS011;21790;42.668;23.298;2023-09-07T07:31:43;11.50;;;8.85;;
35675;SDS011;21790;42.668;23.298;2023-09-07T07:34:08;10.90;;;8.73;;
35675;SDS011;21790;42.668;23.298;2023-09-07T07:36:35;13.15;;;8.73;;
35675;SDS011;21790;42.668;23.298;2023-09-07T07:39:00;17.73;;;9.27;;
35675;SDS011;21790;42.668;23.298;2023-09-07T07:41:28;12.25;;;8.15;;
35675;SDS011;21790;42.668;23.298;2023-09-07T07:43:54;13.55;;;8.63;;
35675;SDS011;21790;42.668;23.298;2023-09-07T07:46:19;14.77;;;8.65;;
35675;SDS011;21790;42.668;23.298;2023-09-07T07:48:45;16.58;;;8.20;;
35675;SDS011;21790;42.668;23.298;2023-09-07T07:51:11;17.88;;;8.63;;
35675;SDS011;21790;42.668;23.298;2023-09-07T07:53:36;12.48;;;8.75;;
35675;SDS011;21790;42.668;23.298;2023-09-07T07:56:02;15.52;;;8.52;;
35675;SDS011;21790;42.668;23.298;2023-09-07T07:58:28;11.85;;;8.75;;
35675;SDS011;21790;42.668;23.298;2023-09-07T08:00:54;11.65;;;8.93;;
35675;SDS011;21790;42.668;23.298;2023-09-07T08:03:23;15.68;;;9.73;;
35675;SDS011;21790;42.668;23.298;2023-09-07T08:05:48;13.55;;;9.00;;
35675;SDS011;21790;42.668;23.298;2023-09-07T08:08:14;14.93;;;9.20;;
35675;SDS011;21790;42.668;23.298;2023-09-07T08:10:40;15.18;;;9.15;;
35675;SDS011;21790;42.668;23.298;2023-09-07T08:13:06;14.95;;;8.90;;
35675;SDS011;21790;42.668;23.298;2023-09-07T08:15:33;15.05;;;9.85;;
35675;SDS011;21790;42.668;23.298;2023-09-07T08:17:59;12.88;;;8.07;;
35675;SDS011;21790;42.668;23.298;2023-09-07T08:20:25;16.00;;;8.25;;
35675;SDS011;21790;42.668;23.298;2023-09-07T08:22:51;11.70;;;8.75;;
35675;SDS011;21790;42.668;23.298;2023-09-07T08:25:17;16.52;;;9.02;;
35675;SDS011;21790;42.668;23.298;2023-09-07T08:27:46;12.93;;;8.20;;
35675;SDS011;21790;42.668;23.298;2023-09-07T08:30:16;14.02;;;9.13;;
35675;SDS011;21790;42.668;23.298;2023-09-07T08:32:43;12.75;;;7.97;;
35675;SDS011;21790;42.668;23.298;2023-09-07T08:35:09;17.42;;;9.05;;
35675;SDS011;21790;42.668;23.298;2023-09-07T08:37:38;14.05;;;8.32;;
35675;SDS011;21790;42.668;23.298;2023-09-07T08:40:04;11.50;;;8.60;;
35675;SDS011;21790;42.668;23.298;2023-09-07T08:42:32;14.32;;;7.13;;
35675;SDS011;21790;42.668;23.298;2023-09-07T08:44:58;13.73;;;7.45;;
35675;SDS011;21790;42.668;23.298;2023-09-07T08:47:28;21.17;;;8.25;;
35675;SDS011;21790;42.668;23.298;2023-09-07T08:49:56;12.02;;;8.10;;
35675;SDS011;21790;42.668;23.298;2023-09-07T08:52:23;12.20;;;7.45;;
35675;SDS011;21790;42.668;23.298;2023-09-07T08:54:48;11.07;;;6.60;;
35675;SDS011;21790;42.668;23.298;2023-09-07T08:57:16;11.30;;;7.22;;
35675;SDS011;21790;42.668;23.298;2023-09-07T08:59:43;14.73;;;7.00;;
35675;SDS011;21790;42.668;23.298;2023-09-07T09:02:09;12.45;;;7.22;;
35675;SDS011;21790;42.668;23.298;2023-09-07T09:04:36;13.93;;;7.87;;
35675;SDS011;21790;42.668;23.298;2023-09-07T09:07:02;14.32;;;6.88;;
35675;SDS011;21790;42.668;23.298;2023-09-07T09:09:29;14.30;;;7.80;;
35675;SDS011;21790;42.668;23.298;2023-09-07T09:12:00;9.55;;;6.80;;
35675;SDS011;21790;42.668;23.298;2023-09-07T09:14:32;13.05;;;7.57;;
35675;SDS011;21790;42.668;23.298;2023-09-07T09:16:57;14.27;;;6.97;;
35675;SDS011;21790;42.668;23.298;2023-09-07T09:19:32;12.25;;;6.20;;
35675;SDS011;21790;42.668;23.298;2023-09-07T09:21:59;10.70;;;5.97;;
35675;SDS011;21790;42.668;23.298;2023-09-07T09:24:25;14.52;;;5.85;;
35675;SDS011;21790;42.668;23.298;2023-09-07T09:26:52;7.28;;;5.80;;
35675;SDS011;21790;42.668;23.298;2023-09-07T09:29:21;8.52;;;5.45;;
35675;SDS011;21790;42.668;23.298;2023-09-07T09:31:48;10.20;;;6.03;;
35675;SDS011;21790;42.668;23.298;2023-09-07T09:34:14;9.98;;;5.93;;
35675;SDS011;21790;42.668;23.298;2023-09-07T09:36:41;12.57;;;6.95;;
35675;SDS011;21790;42.668;23.298;2023-09-07T09:39:07;8.48;;;5.70;;
35675;SDS011;21790;42.668;23.298;2023-09-07T09:41:34;9.18;;;6.07;;
35675;SDS011;21790;42.668;23.298;2023-09-07T09:44:02;6.30;;;5.43;;
35675;SDS011;21790;42.668;23.298;2023-09-07T09:46:28;15.07;;;6.10;;
35675;SDS011;21790;42.668;23.298;2023-09-07T09:48:57;8.77;;;6.00;;
35675;SDS011;21790;42.668;23.298;2023-09-07T09:51:23;8.27;;;6.30;;
35675;SDS011;21790;42.668;23.298;2023-09-07T09:53:49;12.18;;;5.75;;
35675;SDS011;21790;42.668;23.298;2023-09-07T09:56:16;9.82;;;5.45;;
35675;SDS011;21790;42.668;23.298;2023-09-07T09:58:42;10.77;;;6.53;;
35675;SDS011;21790;42.668;23.298;2023-09-07T10:01:08;10.40;;;5.95;;
35675;SDS011;21790;42.668;23.298;2023-09-07T10:03:40;10.73;;;5.60;;
35675;SDS011;21790;42.668;23.298;2023-09-07T10:06:11;10.40;;;6.40;;
35675;SDS011;21790;42.668;23.298;2023-09-07T10:11:50;9.88;;;5.57;;
35675;SDS011;21790;42.668;23.298;2023-09-07T10:14:19;8.98;;;5.82;;
35675;SDS011;21790;42.668;23.298;2023-09-07T10:16:49;11.43;;;5.85;;
35675;SDS011;21790;42.668;23.298;2023-09-07T10:19:23;13.43;;;6.00;;
35675;SDS011;21790;42.668;23.298;2023-09-07T10:21:50;8.95;;;6.38;;
35675;SDS011;21790;42.668;23.298;2023-09-07T10:24:27;13.88;;;6.10;;
35675;SDS011;21790;42.668;23.298;2023-09-07T10:27:04;13.05;;;5.70;;
35675;SDS011;21790;42.668;23.298;2023-09-07T10:29:50;8.48;;;6.43;;
35675;SDS011;21790;42.668;23.298;2023-09-07T10:32:19;7.20;;;5.72;;
35675;SDS011;21790;42.668;23.298;2023-09-07T10:34:47;12.48;;;6.75;;
35675;SDS011;21790;42.668;23.298;2023-09-07T10:44:47;14.63;;;5.95;;
35675;SDS011;21790;42.668;23.298;2023-09-07T10:47:13;12.63;;;6.55;;
35675;SDS011;21790;42.668;23.298;2023-09-07T10:49:39;9.88;;;6.55;;
35675;SDS011;21790;42.668;23.298;2023-09-07T10:52:07;9.70;;;5.60;;
35675;SDS011;21790;42.668;23.298;2023-09-07T10:54:33;10.32;;;6.20;;
35675;SDS011;21790;42.668;23.298;2023-09-07T10:57:07;10.45;;;5.97;;
35675;SDS011;21790;42.668;23.298;2023-09-07T10:59:33;9.90;;;5.75;;
35675;SDS011;21790;42.668;23.298;2023-09-07T11:02:05;13.10;;;5.53;;
35675;SDS011;21790;42.668;23.298;2023-09-07T11:04:32;7.63;;;5.45;;
35675;SDS011;21790;42.668;23.298;2023-09-07T11:06:57;9.18;;;5.40;;
35675;SDS011;21790;42.668;23.298;2023-09-07T11:09:23;10.75;;;6.22;;
35675;SDS011;21790;42.668;23.298;2023-09-07T11:21:32;9.13;;;5.82;;
35675;SDS011;21790;42.668;23.298;2023-09-07T11:24:00;11.15;;;5.93;;
35675;SDS011;21790;42.668;23.298;2023-09-07T11:26:26;10.20;;;6.15;;
35675;SDS011;21790;42.668;23.298;2023-09-07T11:28:52;9.00;;;6.30;;
35675;SDS011;21790;42.668;23.298;2023-09-07T11:31:18;12.25;;;5.13;;
35675;SDS011;21790;42.668;23.298;2023-09-07T11:33:46;10.20;;;5.30;;
35675;SDS011;21790;42.668;23.298;2023-09-07T11:36:12;8.98;;;5.72;;
35675;SDS011;21790;42.668;23.298;2023-09-07T11:38:38;7.93;;;4.95;;
35675;SDS011;21790;42.668;23.298;2023-09-07T11:41:08;10.63;;;5.00;;
35675;SDS011;21790;42.668;23.298;2023-09-07T11:43:34;11.38;;;5.18;;
35675;SDS011;21790;42.668;23.298;2023-09-07T11:45:59;9.63;;;5.82;;
35675;SDS011;21790;42.668;23.298;2023-09-07T11:48:26;8.15;;;5.38;;
35675;SDS011;21790;42.668;23.298;2023-09-07T11:50:53;7.88;;;5.35;;
35675;SDS011;21790;42.668;23.298;2023-09-07T11:53:19;7.50;;;5.00;;
35675;SDS011;21790;42.668;23.298;2023-09-07T11:55:44;12.93;;;5.93;;
35675;SDS011;21790;42.668;23.298;2023-09-07T11:58:10;7.07;;;4.82;;
35675;SDS011;21790;42.668;23.298;2023-09-07T12:00:36;9.75;;;5.25;;
35675;SDS011;21790;42.668;23.298;2023-09-07T12:03:02;9.75;;;5.22;;
35675;SDS011;21790;42.668;23.298;2023-09-07T12:05:27;9.73;;;5.20;;
35675;SDS011;21790;42.668;23.298;2023-09-07T12:07:53;7.43;;;5.10;;
35675;SDS011;21790;42.668;23.298;2023-09-07T12:10:19;8.55;;;5.28;;
35675;SDS011;21790;42.668;23.298;2023-09-07T12:12:45;8.38;;;5.47;;
35675;SDS011;21790;42.668;23.298;2023-09-07T12:15:10;12.00;;;5.18;;
35675;SDS011;21790;42.668;23.298;2023-09-07T12:17:38;8.63;;;4.82;;
35675;SDS011;21790;42.668;23.298;2023-09-07T12:20:04;8.25;;;5.00;;
35675;SDS011;21790;42.668;23.298;2023-09-07T12:42:00;7.95;;;5.40;;
35675;SDS011;21790;42.668;23.298;2023-09-07T13:08:44;23.70;;;5.47;;
35675;SDS011;21790;42.668;23.298;2023-09-07T13:11:10;11.18;;;5.00;;
35675;SDS011;21790;42.668;23.298;2023-09-07T13:13:36;16.40;;;4.68;;
35675;SDS011;21790;42.668;23.298;2023-09-07T13:16:01;33.42;;;6.80;;
35675;SDS011;21790;42.668;23.298;2023-09-07T13:18:27;8.50;;;4.47;;
35675;SDS011;21790;42.668;23.298;2023-09-07T13:20:53;9.50;;;4.70;;
35675;SDS011;21790;42.668;23.298;2023-09-07T13:23:24;9.87;;;4.77;;
35675;SDS011;21790;42.668;23.298;2023-09-07T13:25:51;11.90;;;4.85;;
35675;SDS011;21790;42.668;23.298;2023-09-07T13:28:16;10.43;;;4.40;;
35675;SDS011;21790;42.668;23.298;2023-09-07T13:30:42;12.55;;;4.78;;
35675;SDS011;21790;42.668;23.298;2023-09-07T13:33:07;12.25;;;4.68;;
35675;SDS011;21790;42.668;23.298;2023-09-07T13:35:33;5.68;;;4.05;;
35675;SDS011;21790;42.668;23.298;2023-09-07T13:37:59;10.13;;;5.00;;
35675;SDS011;21790;42.668;23.298;2023-09-07T13:40:24;8.93;;;4.15;;
35675;SDS011;21790;42.668;23.298;2023-09-07T13:42:54;5.97;;;3.90;;
35675;SDS011;21790;42.668;23.298;2023-09-07T13:45:21;9.98;;;4.53;;
35675;SDS011;21790;42.668;23.298;2023-09-07T13:47:47;8.63;;;4.85;;
35675;SDS011;21790;42.668;23.298;2023-09-07T13:50:12;8.57;;;4.70;;
35675;SDS011;21790;42.668;23.298;2023-09-07T13:52:38;7.72;;;4.40;;
35675;SDS011;21790;42.668;23.298;2023-09-07T13:55:04;8.65;;;4.65;;
35675;SDS011;21790;42.668;23.298;2023-09-07T13:57:30;8.55;;;4.38;;
35675;SDS011;21790;42.668;23.298;2023-09-07T13:59:57;9.65;;;5.18;;
35675;SDS011;21790;42.668;23.298;2023-09-07T14:02:24;7.72;;;4.80;;
35675;SDS011;21790;42.668;23.298;2023-09-07T14:04:51;6.90;;;4.55;;
35675;SDS011;21790;42.668;23.298;2023-09-07T14:07:16;8.98;;;4.20;;
35675;SDS011;21790;42.668;23.298;2023-09-07T14:09:43;10.45;;;5.25;;
35675;SDS011;21790;42.668;23.298;2023-09-07T14:12:09;7.30;;;4.93;;
35675;SDS011;21790;42.668;23.298;2023-09-07T14:14:35;9.52;;;4.88;;
35675;SDS011;21790;42.668;23.298;2023-09-07T14:17:01;10.00;;;4.93;;
35675;SDS011;21790;42.668;23.298;2023-09-07T14:19:27;7.68;;;4.75;;
35675;SDS011;21790;42.668;23.298;2023-09-07T14:21:56;9.30;;;4.30;;
35675;SDS011;21790;42.668;23.298;2023-09-07T14:24:24;6.95;;;4.40;;
35675;SDS011;21790;42.668;23.298;2023-09-07T14:26:51;6.97;;;4.60;;
35675;SDS011;21790;42.668;23.298;2023-09-07T14:29:17;11.00;;;5.22;;
35675;SDS011;21790;42.668;23.298;2023-09-07T14:31:42;7.50;;;4.35;;
35675;SDS011;21790;42.668;23.298;2023-09-07T14:34:11;6.45;;;4.13;;
35675;SDS011;21790;42.668;23.298;2023-09-07T14:36:38;9.50;;;5.35;;
35675;SDS011;21790;42.668;23.298;2023-09-07T14:39:08;7.13;;;4.38;;
35675;SDS011;21790;42.668;23.298;2023-09-07T14:41:37;12.82;;;4.68;;
35675;SDS011;21790;42.668;23.298;2023-09-07T14:44:03;6.72;;;4.75;;
35675;SDS011;21790;42.668;23.298;2023-09-07T14:46:29;12.48;;;4.45;;
35675;SDS011;21790;42.668;23.298;2023-09-07T14:48:55;7.80;;;5.00;;
35675;SDS011;21790;42.668;23.298;2023-09-07T14:51:21;10.02;;;5.32;;
35675;SDS011;21790;42.668;23.298;2023-09-07T14:53:47;5.63;;;4.22;;
35675;SDS011;21790;42.668;23.298;2023-09-07T14:56:12;11.70;;;5.13;;
35675;SDS011;21790;42.668;23.298;2023-09-07T14:58:38;7.05;;;4.65;;
35675;SDS011;21790;42.668;23.298;2023-09-07T15:01:04;13.10;;;4.97;;
35675;SDS011;21790;42.668;23.298;2023-09-07T15:03:29;8.15;;;4.53;;
35675;SDS011;21790;42.668;23.298;2023-09-07T15:05:56;10.38;;;4.57;;
35675;SDS011;21790;42.668;23.298;2023-09-07T15:08:22;10.05;;;4.95;;
35675;SDS011;21790;42.668;23.298;2023-09-07T15:10:48;12.32;;;6.00;;
35675;SDS011;21790;42.668;23.298;2023-09-07T15:13:13;10.20;;;5.05;;
35675;SDS011;21790;42.668;23.298;2023-09-07T15:15:39;9.30;;;4.72;;
35675;SDS011;21790;42.668;23.298;2023-09-07T15:18:08;13.10;;;5.07;;